createdAt,value
2023-02-12T00:01:20.361Z,100573.09
2023-02-12T00:03:47.508Z,100584.31
2023-02-12T00:06:16.001Z,100566.41
2023-02-12T00:08:46.497Z,100569.91
2023-02-12T00:11:19.463Z,100566.22
2023-02-12T00:13:50.978Z,100562.22
2023-02-12T00:16:21.799Z,100555.69
2023-02-12T00:18:48.855Z,100569.75
2023-02-12T00:21:18.496Z,100560.97
2023-02-12T00:23:45.287Z,100564.50
2023-02-12T00:26:14.804Z,100564.59
2023-02-12T00:28:41.752Z,100581.94
2023-02-12T00:31:10.890Z,100583.31
2023-02-12T00:33:38.204Z,100581.81
2023-02-12T00:38:36.179Z,100578.97
2023-02-12T00:41:03.089Z,100584.28
2023-02-12T00:43:30.060Z,100586.84
2023-02-12T00:45:57.309Z,100592.00
2023-02-12T00:48:24.545Z,100587.91
2023-02-12T00:50:51.358Z,100590.25
2023-02-12T00:53:18.385Z,100589.19
2023-02-12T00:55:48.381Z,100589.75
2023-02-12T00:58:18.863Z,100589.50
2023-02-12T01:00:48.470Z,100593.59
2023-02-12T01:03:15.710Z,100585.28
2023-02-12T01:05:42.908Z,100599.97
2023-02-12T01:08:13.027Z,100593.13
2023-02-12T01:10:44.013Z,100588.78
2023-02-12T01:13:15.314Z,100585.97
2023-02-12T01:15:42.739Z,100581.19
2023-02-12T01:18:11.044Z,100579.31
2023-02-12T01:20:40.254Z,100583.25
2023-02-12T01:23:09.681Z,100576.22
2023-02-12T01:25:38.899Z,100578.25
2023-02-12T01:28:10.355Z,100578.47
2023-02-12T01:30:37.269Z,100576.38
2023-02-12T01:33:09.918Z,100578.97
2023-02-12T01:35:40.692Z,100585.91
2023-02-12T01:40:34.269Z,100579.09
2023-02-12T01:43:03.123Z,100579.66
2023-02-12T01:45:46.588Z,100579.66
2023-02-12T01:48:16.602Z,100569.34
2023-02-12T01:50:45.991Z,100564.69
2023-02-12T01:53:20.057Z,100572.28
2023-02-12T01:55:55.889Z,100568.09
2023-02-12T01:58:25.339Z,100572.44
2023-02-12T02:00:52.609Z,100570.66
2023-02-12T02:03:19.299Z,100573.81
2023-02-12T02:05:49.278Z,100574.41
2023-02-12T02:08:15.889Z,100576.97
2023-02-12T02:10:42.985Z,100574.63
2023-02-12T02:13:28.278Z,100561.97
2023-02-12T02:16:00.344Z,100568.78
2023-02-12T02:18:31.217Z,100570.66
2023-02-12T02:21:12.393Z,100573.50
2023-02-12T02:23:38.935Z,100572.53
2023-02-12T02:26:42.405Z,100566.69
2023-02-12T02:29:27.686Z,100565.75
2023-02-12T02:32:06.093Z,100569.47
2023-02-12T02:34:47.302Z,100572.50
2023-02-12T02:37:54.793Z,100570.88
2023-02-12T02:40:26.046Z,100573.19
2023-02-12T02:43:03.274Z,100569.78
2023-02-12T02:45:51.663Z,100584.13
2023-02-12T02:48:32.272Z,100580.38
2023-02-12T02:53:45.044Z,100575.22
2023-02-12T02:56:17.614Z,100577.28
2023-02-12T02:58:59.673Z,100579.88
2023-02-12T03:01:41.123Z,100570.59
2023-02-12T03:04:38.904Z,100576.31
2023-02-12T03:07:17.250Z,100571.16
2023-02-12T03:09:49.262Z,100580.38
2023-02-12T03:12:23.430Z,100582.50
2023-02-12T03:15:04.165Z,100587.91
2023-02-12T03:17:35.278Z,100586.00
2023-02-12T03:20:24.649Z,100585.78
2023-02-12T03:22:56.511Z,100585.53
2023-02-12T03:25:34.241Z,100584.72
2023-02-12T03:28:09.782Z,100600.22
2023-02-12T03:30:44.595Z,100599.13
2023-02-12T03:33:36.961Z,100609.59
2023-02-12T03:36:23.598Z,100604.53
2023-02-12T03:38:55.375Z,100612.72
2023-02-12T03:41:35.829Z,100606.09
2023-02-12T03:44:39.595Z,100608.75
2023-02-12T03:47:18.596Z,100609.78
2023-02-12T03:49:54.220Z,100612.22
2023-02-12T03:52:21.158Z,100607.91
2023-02-12T03:54:47.964Z,100602.59
2023-02-12T03:57:20.131Z,100603.00
2023-02-12T03:59:50.170Z,100606.13
2023-02-12T04:02:19.468Z,100607.06
2023-02-12T04:04:47.569Z,100619.53
2023-02-12T04:07:14.951Z,100620.09
2023-02-12T04:09:41.683Z,100621.88
2023-02-12T04:12:30.999Z,100623.75
2023-02-12T04:17:40.601Z,100622.78
2023-02-12T04:20:13.379Z,100625.38
2023-02-12T04:23:15.660Z,100626.59
2023-02-12T04:25:48.191Z,100629.53
2023-02-12T04:31:20.584Z,100621.31
2023-02-12T04:36:44.568Z,100625.81
2023-02-12T04:39:18.746Z,100628.25
2023-02-12T04:41:45.297Z,100628.97
2023-02-12T04:44:19.366Z,100633.41
2023-02-12T04:46:45.892Z,100633.66
2023-02-12T04:49:20.581Z,100628.88
2023-02-12T04:51:49.899Z,100631.91
2023-02-12T04:54:19.408Z,100629.22
2023-02-12T04:56:46.690Z,100638.03
2023-02-12T05:01:41.183Z,100631.91
2023-02-12T05:04:09.972Z,100630.03
2023-02-12T05:06:37.877Z,100640.22
2023-02-12T05:09:06.234Z,100639.53
2023-02-12T05:11:32.949Z,100646.56
2023-02-12T05:14:00.058Z,100647.13
2023-02-12T05:16:26.960Z,100649.25
2023-02-12T05:18:53.443Z,100649.94
2023-02-12T05:21:20.007Z,100653.97
2023-02-12T05:23:46.482Z,100649.00
2023-02-12T05:26:16.436Z,100649.00
2023-02-12T05:28:43.108Z,100644.56
2023-02-12T05:31:13.612Z,100648.00
2023-02-12T05:33:43.895Z,100638.97
2023-02-12T05:36:13.759Z,100644.03
2023-02-12T05:38:40.375Z,100652.03
2023-02-12T05:41:10.086Z,100659.41
2023-02-12T05:43:37.129Z,100656.72
2023-02-12T05:46:06.521Z,100656.38
2023-02-12T05:48:34.200Z,100650.06
2023-02-12T05:51:13.764Z,100659.44
2023-02-12T05:53:41.312Z,100665.31
2023-02-12T05:56:17.565Z,100669.88
2023-02-12T05:58:47.263Z,100668.25
2023-02-12T06:01:20.280Z,100670.25
2023-02-12T06:03:47.642Z,100664.50
2023-02-12T06:06:15.318Z,100671.19
2023-02-12T06:08:48.535Z,100669.06
2023-02-12T06:11:16.768Z,100666.84
2023-02-12T06:13:46.955Z,100670.97
2023-02-12T06:16:20.002Z,100671.78
2023-02-12T06:18:47.015Z,100662.97
2023-02-12T06:21:14.153Z,100669.66
2023-02-12T06:23:43.556Z,100668.97
2023-02-12T06:26:10.558Z,100665.31
2023-02-12T06:28:37.490Z,100667.28
2023-02-12T06:31:04.990Z,100677.25
2023-02-12T06:33:33.103Z,100681.63
2023-02-12T06:36:03.968Z,100689.00
2023-02-12T06:38:32.693Z,100679.28
2023-02-12T06:41:02.470Z,100690.41
2023-02-12T06:43:29.788Z,100694.19
2023-02-12T06:45:57.053Z,100696.50
2023-02-12T06:48:26.214Z,100699.06
2023-02-12T06:50:53.169Z,100706.44
2023-02-12T06:53:19.966Z,100710.56
2023-02-12T06:55:46.788Z,100708.44
2023-02-12T06:58:13.663Z,100710.44
2023-02-12T07:00:41.921Z,100711.97
2023-02-12T07:05:38.004Z,100719.34
2023-02-12T07:08:05.198Z,100728.63
2023-02-12T07:10:32.084Z,100727.22
2023-02-12T07:12:58.875Z,100730.50
2023-02-12T07:15:28.187Z,100724.50
2023-02-12T07:18:35.539Z,100726.16
2023-02-12T07:21:05.891Z,100730.84
2023-02-12T07:23:33.714Z,100727.09
2023-02-12T07:26:09.827Z,100733.53
2023-02-12T07:28:52.582Z,100734.59
2023-02-12T07:31:22.261Z,100734.25
2023-02-12T07:36:24.086Z,100735.78
2023-02-12T07:41:23.099Z,100743.25
2023-02-12T07:46:42.366Z,100747.72
2023-02-12T07:49:14.155Z,100749.25
2023-02-12T07:51:41.511Z,100751.44
2023-02-12T07:54:14.907Z,100752.75
2023-02-12T07:56:44.660Z,100753.22
2023-02-12T07:59:13.690Z,100752.72
2023-02-12T08:01:53.886Z,100755.66
2023-02-12T08:04:24.151Z,100743.06
2023-02-12T08:07:10.220Z,100755.16
2023-02-12T08:09:40.234Z,100753.88
2023-02-12T08:14:34.930Z,100751.63
2023-02-12T08:17:04.474Z,100755.84
2023-02-12T08:19:31.453Z,100756.63
2023-02-12T08:21:58.816Z,100762.13
2023-02-12T08:24:26.221Z,100756.34
2023-02-12T08:26:54.192Z,100758.31
2023-02-12T08:29:31.369Z,100755.56
2023-02-12T08:32:02.443Z,100755.50
2023-02-12T08:34:37.051Z,100751.22
2023-02-12T08:37:08.506Z,100746.94
2023-02-12T08:39:35.499Z,100743.56
2023-02-12T08:42:02.540Z,100736.50
2023-02-12T08:44:35.768Z,100745.09
2023-02-12T08:47:13.798Z,100751.44
2023-02-12T08:50:07.665Z,100745.59
2023-02-12T08:52:45.866Z,100751.69
2023-02-12T08:55:19.877Z,100751.69
2023-02-12T08:57:46.909Z,100755.81
2023-02-12T09:00:14.442Z,100746.41
2023-02-12T09:02:44.785Z,100748.22
2023-02-12T09:05:16.925Z,100758.94
2023-02-12T09:07:44.418Z,100761.22
2023-02-12T09:10:24.517Z,100760.28
2023-02-12T09:12:56.995Z,100756.13
2023-02-12T09:15:23.942Z,100754.94
2023-02-12T09:17:54.673Z,100755.47
2023-02-12T09:20:22.030Z,100749.78
2023-02-12T09:22:51.230Z,100760.44
2023-02-12T09:25:23.116Z,100764.97
2023-02-12T09:27:52.913Z,100761.59
2023-02-12T09:30:25.357Z,100756.41
2023-02-12T09:32:56.321Z,100766.22
2023-02-12T09:35:31.625Z,100771.66
2023-02-12T09:37:58.794Z,100777.94
2023-02-12T09:40:42.190Z,100782.03
2023-02-12T09:43:30.079Z,100778.38
2023-02-12T09:46:47.387Z,100776.72
2023-02-12T09:49:16.468Z,100767.56
2023-02-12T09:51:54.079Z,100764.81
2023-02-12T09:54:26.366Z,100765.59
2023-02-12T09:57:03.714Z,100765.53
2023-02-12T09:59:45.410Z,100765.53
2023-02-12T10:02:19.648Z,100764.41
2023-02-12T10:05:04.616Z,100763.13
2023-02-12T10:07:40.156Z,100774.19
2023-02-12T10:10:28.493Z,100775.00
2023-02-12T10:13:04.413Z,100775.06
2023-02-12T10:15:49.439Z,100765.34
2023-02-12T10:18:26.249Z,100777.31
2023-02-12T10:21:22.748Z,100768.94
2023-02-12T10:24:35.203Z,100764.16
2023-02-12T10:27:24.095Z,100769.03
2023-02-12T10:29:52.217Z,100772.72
2023-02-12T10:32:31.161Z,100771.69
2023-02-12T10:34:59.850Z,100774.16
2023-02-12T10:37:40.634Z,100770.50
2023-02-12T10:40:26.492Z,100770.22
2023-02-12T10:42:56.417Z,100772.38
2023-02-12T10:45:35.712Z,100775.31
2023-02-12T10:48:21.678Z,100771.91
2023-02-12T10:53:42.121Z,100758.84
2023-02-12T10:56:24.913Z,100750.44
2023-02-12T10:58:55.973Z,100752.75
2023-02-12T11:01:26.167Z,100748.88
2023-02-12T11:03:55.332Z,100752.66
2023-02-12T11:06:25.974Z,100755.81
2023-02-12T11:08:59.725Z,100749.50
2023-02-12T11:11:34.120Z,100747.91
2023-02-12T11:14:06.298Z,100749.72
2023-02-12T11:17:03.145Z,100759.22
2023-02-12T11:19:32.589Z,100752.63
2023-02-12T11:22:21.002Z,100753.25
2023-02-12T11:25:04.995Z,100750.28
2023-02-12T11:27:41.960Z,100746.75
2023-02-12T11:30:23.007Z,100751.22
2023-02-12T11:32:53.386Z,100752.72
2023-02-12T11:35:29.710Z,100755.13
2023-02-12T11:37:58.825Z,100744.72
2023-02-12T11:40:31.439Z,100744.56
2023-02-12T11:43:02.015Z,100741.84
2023-02-12T11:45:42.030Z,100746.13
2023-02-12T11:48:43.943Z,100753.38
2023-02-12T11:53:51.752Z,100752.66
2023-02-12T11:56:19.302Z,100747.63
2023-02-12T11:58:47.941Z,100743.38
2023-02-12T12:01:43.729Z,100743.25
2023-02-12T12:04:17.986Z,100738.56
2023-02-12T12:06:54.314Z,100742.53
2023-02-12T12:09:39.857Z,100738.34
2023-02-12T12:12:06.756Z,100732.69
2023-02-12T12:15:08.893Z,100736.63
2023-02-12T12:18:08.938Z,100729.78
2023-02-12T12:21:15.505Z,100734.84
2023-02-12T12:26:48.006Z,100737.75
2023-02-12T12:29:28.834Z,100743.81
2023-02-12T12:34:32.753Z,100736.16
2023-02-12T12:37:12.445Z,100737.38
2023-02-12T12:40:20.347Z,100739.03
2023-02-12T12:42:56.454Z,100733.84
2023-02-12T12:45:40.796Z,100743.25
2023-02-12T12:48:35.841Z,100730.72
2023-02-12T12:51:13.011Z,100744.06
2023-02-12T12:56:38.906Z,100735.19
2023-02-12T12:59:30.349Z,100735.66
2023-02-12T13:02:32.143Z,100732.47
2023-02-12T13:05:22.287Z,100738.13
2023-02-12T13:08:22.730Z,100731.00
2023-02-12T13:11:07.028Z,100738.88
2023-02-12T13:13:45.981Z,100732.06
2023-02-12T13:16:23.577Z,100728.38
2023-02-12T13:19:01.653Z,100722.88
2023-02-12T13:21:44.337Z,100719.28
2023-02-12T13:24:39.032Z,100728.16
2023-02-12T13:27:20.335Z,100720.34
2023-02-12T13:29:59.241Z,100724.16
2023-02-12T13:32:32.730Z,100721.25
2023-02-12T13:35:01.362Z,100719.34
2023-02-12T13:37:57.267Z,100725.88
2023-02-12T13:46:04.477Z,100717.09
2023-02-12T13:48:43.458Z,100725.56
2023-02-12T13:51:51.192Z,100725.44
2023-02-12T13:54:56.747Z,100727.06
2023-02-12T14:00:51.935Z,100718.75
2023-02-12T14:03:34.757Z,100724.03
2023-02-12T14:06:29.334Z,100716.38
2023-02-12T14:09:27.179Z,100712.75
2023-02-12T14:12:00.126Z,100714.75
2023-02-12T14:14:36.810Z,100713.34
2023-02-12T14:17:38.527Z,100712.66
2023-02-12T14:23:03.201Z,100710.94
2023-02-12T14:25:33.982Z,100706.19
2023-02-12T14:28:11.079Z,100713.59
2023-02-12T14:30:59.086Z,100706.56
2023-02-12T14:33:31.145Z,100706.00
2023-02-12T14:36:40.325Z,100703.56
2023-02-12T14:44:48.929Z,100699.78
2023-02-12T14:47:45.044Z,100695.59
2023-02-12T14:50:24.249Z,100704.88
2023-02-12T14:55:50.170Z,100710.34
2023-02-12T15:00:49.603Z,100697.09
2023-02-12T15:06:12.288Z,100696.28
2023-02-12T15:09:03.254Z,100689.53
2023-02-12T15:11:33.096Z,100688.31
2023-02-12T15:14:31.305Z,100695.94
2023-02-12T15:17:24.919Z,100696.78
2023-02-12T15:20:06.199Z,100696.22
2023-02-12T15:22:51.113Z,100690.25
2023-02-12T15:25:35.214Z,100691.38
2023-02-12T15:30:49.061Z,100678.81
2023-02-12T15:33:33.014Z,100680.22
2023-02-12T15:36:11.272Z,100686.78
2023-02-12T15:38:59.184Z,100683.25
2023-02-12T15:41:30.166Z,100684.19
2023-02-12T15:43:57.433Z,100680.25
2023-02-12T15:46:28.028Z,100675.63
2023-02-12T15:49:19.654Z,100678.50
2023-02-12T15:51:49.079Z,100679.06
2023-02-12T15:54:20.105Z,100676.88
2023-02-12T15:56:50.220Z,100675.25
2023-02-12T15:59:29.214Z,100674.56
2023-02-12T16:02:02.666Z,100669.28
2023-02-12T16:04:33.402Z,100672.66
2023-02-12T16:07:01.663Z,100666.53
2023-02-12T16:09:37.807Z,100664.19
2023-02-12T16:12:17.338Z,100668.00
2023-02-12T16:14:53.043Z,100672.59
2023-02-12T16:17:33.677Z,100666.34
2023-02-12T16:20:04.377Z,100675.31
2023-02-12T16:22:49.769Z,100674.88
2023-02-12T16:25:27.857Z,100673.28
2023-02-12T16:30:39.502Z,100680.06
2023-02-12T16:34:00.812Z,100674.31
2023-02-12T16:36:32.047Z,100688.78
2023-02-12T16:39:12.054Z,100682.75
2023-02-12T16:41:55.236Z,100690.44
2023-02-12T16:44:27.952Z,100690.38
2023-02-12T16:47:31.308Z,100692.53
2023-02-12T16:50:02.336Z,100690.88
2023-02-12T16:52:43.364Z,100692.63
2023-02-12T16:55:18.102Z,100699.47
2023-02-12T16:57:45.722Z,100686.16
2023-02-12T17:00:17.281Z,100696.75
2023-02-12T17:02:44.260Z,100690.06
2023-02-12T17:05:17.018Z,100700.75
2023-02-12T17:07:46.173Z,100694.56
2023-02-12T17:12:49.604Z,100697.88
2023-02-12T17:15:27.208Z,100700.00
2023-02-12T17:17:57.159Z,100699.44
2023-02-12T17:20:28.364Z,100703.66
2023-02-12T17:22:57.971Z,100703.53
2023-02-12T17:25:25.529Z,100700.09
2023-02-12T17:27:54.831Z,100699.84
2023-02-12T17:30:22.117Z,100696.75
2023-02-12T17:32:51.173Z,100702.38
2023-02-12T17:37:52.023Z,100708.13
2023-02-12T17:40:19.385Z,100709.97
2023-02-12T17:42:49.101Z,100714.19
2023-02-12T17:47:58.991Z,100709.78
2023-02-12T17:50:31.667Z,100723.38
2023-02-12T17:53:20.522Z,100713.56
2023-02-12T17:55:52.163Z,100715.94
2023-02-12T17:58:30.549Z,100714.41
2023-02-12T18:00:58.216Z,100715.91
2023-02-12T18:03:27.448Z,100718.84
2023-02-12T18:05:54.774Z,100718.47
2023-02-12T18:08:34.432Z,100725.97
2023-02-12T18:11:10.171Z,100725.97
2023-02-12T18:13:38.108Z,100722.31
2023-02-12T18:16:58.694Z,100726.53
2023-02-12T18:19:33.392Z,100725.84
2023-02-12T18:22:10.222Z,100726.41
2023-02-12T18:24:47.065Z,100725.16
2023-02-12T18:27:34.040Z,100718.34
2023-02-12T18:30:04.960Z,100727.03
2023-02-12T18:32:32.201Z,100723.63
2023-02-12T18:35:01.231Z,100721.72
2023-02-12T18:37:29.078Z,100712.47
2023-02-12T18:40:03.304Z,100709.06
2023-02-12T18:42:35.261Z,100709.88
2023-02-12T18:45:31.005Z,100704.16
2023-02-12T18:48:09.377Z,100707.69
2023-02-12T18:50:45.194Z,100701.31
2023-02-12T18:53:25.089Z,100702.38
2023-02-12T18:56:09.170Z,100714.63
2023-02-12T18:58:43.632Z,100704.41
2023-02-12T19:03:57.550Z,100698.41
2023-02-12T19:06:40.724Z,100702.06
2023-02-12T19:14:39.039Z,100700.63
2023-02-12T19:17:08.970Z,100700.50
2023-02-12T19:20:07.331Z,100708.13
2023-02-12T19:22:39.145Z,100697.91
2023-02-12T19:25:13.341Z,100698.97
2023-02-12T19:27:42.812Z,100698.63
2023-02-12T19:30:28.350Z,100702.38
2023-02-12T19:32:57.686Z,100709.22
2023-02-12T19:35:24.591Z,100705.78
2023-02-12T19:37:54.032Z,100706.63
2023-02-12T19:40:25.435Z,100709.88
2023-02-12T19:42:59.484Z,100712.47
2023-02-12T19:45:34.000Z,100715.28
2023-02-12T19:50:48.156Z,100720.22
2023-02-12T19:53:22.143Z,100720.34
2023-02-12T19:55:51.760Z,100717.63
2023-02-12T19:58:18.663Z,100721.28
2023-02-12T20:00:46.468Z,100720.00
2023-02-12T20:06:10.738Z,100717.97
2023-02-12T20:08:46.256Z,100718.34
2023-02-12T20:13:58.276Z,100718.53
2023-02-12T20:16:31.359Z,100720.19
2023-02-12T20:19:07.498Z,100720.75
2023-02-12T20:21:37.383Z,100716.66
2023-02-12T20:24:04.874Z,100718.16
2023-02-12T20:26:33.754Z,100722.63
2023-02-12T20:29:06.689Z,100725.09
2023-02-12T20:31:43.286Z,100729.56
2023-02-12T20:34:15.842Z,100717.47
2023-02-12T20:41:51.468Z,100727.44
2023-02-12T20:44:29.921Z,100729.06
2023-02-12T20:49:43.541Z,100730.28
2023-02-12T20:52:13.548Z,100730.59
2023-02-12T20:54:42.882Z,100730.13
2023-02-12T20:57:16.845Z,100731.53
2023-02-12T20:59:43.855Z,100733.53
2023-02-12T21:05:09.688Z,100735.63
2023-02-12T21:07:36.550Z,100738.59
2023-02-12T21:10:04.830Z,100738.03
2023-02-12T21:12:31.900Z,100743.88
2023-02-12T21:14:58.940Z,100741.16
2023-02-12T21:17:26.055Z,100746.44
2023-02-12T21:19:53.037Z,100738.59
2023-02-12T21:22:21.488Z,100734.59
2023-02-12T21:24:56.064Z,100748.81
2023-02-12T21:27:23.102Z,100738.03
2023-02-12T21:29:50.103Z,100744.00
2023-02-12T21:32:20.390Z,100746.03
2023-02-12T21:34:48.874Z,100742.22
2023-02-12T21:42:37.283Z,100742.59
2023-02-12T21:45:08.393Z,100746.69
2023-02-12T21:47:38.263Z,100739.53
2023-02-12T21:50:08.488Z,100738.84
2023-02-12T21:52:44.590Z,100741.53
2023-02-12T21:57:48.179Z,100734.84
2023-02-12T22:00:20.275Z,100737.31
2023-02-12T22:02:47.173Z,100735.91
2023-02-12T22:05:14.187Z,100736.38
2023-02-12T22:07:41.071Z,100731.91
2023-02-12T22:10:09.551Z,100729.38
2023-02-12T22:12:46.794Z,100734.09
2023-02-12T22:15:13.885Z,100740.19
2023-02-12T22:17:41.239Z,100733.16
2023-02-12T22:20:11.140Z,100741.38
2023-02-12T22:22:38.415Z,100736.22
2023-02-12T22:25:05.689Z,100729.66
2023-02-12T22:27:37.567Z,100736.81
2023-02-12T22:30:13.559Z,100734.94
2023-02-12T22:32:47.888Z,100726.94
2023-02-12T22:35:15.148Z,100728.22
2023-02-12T22:37:49.597Z,100729.41
2023-02-12T22:40:16.494Z,100726.47
2023-02-12T22:42:43.529Z,100710.44
2023-02-12T22:45:10.567Z,100727.53
2023-02-12T22:47:42.570Z,100724.66
2023-02-12T22:50:12.587Z,100725.25
2023-02-12T22:52:40.668Z,100721.53
2023-02-12T22:55:07.662Z,100719.31
2023-02-12T22:57:37.083Z,100731.50
2023-02-12T23:00:08.447Z,100726.59
2023-02-12T23:02:39.200Z,100732.94
2023-02-12T23:05:06.010Z,100735.88
2023-02-12T23:07:41.361Z,100742.31
2023-02-12T23:10:08.990Z,100740.56
2023-02-12T23:12:43.020Z,100746.16
2023-02-12T23:15:10.507Z,100734.41
2023-02-12T23:17:37.719Z,100732.06
2023-02-12T23:20:14.579Z,100724.78
2023-02-12T23:22:41.720Z,100733.78
2023-02-12T23:25:08.630Z,100730.72
2023-02-12T23:27:35.517Z,100734.56
2023-02-12T23:30:02.440Z,100736.66
2023-02-12T23:35:00.327Z,100722.94
2023-02-12T23:37:27.422Z,100718.44
2023-02-12T23:40:01.699Z,100717.56
2023-02-12T23:42:28.821Z,100713.91
2023-02-12T23:44:56.983Z,100707.72
2023-02-12T23:47:27.195Z,100705.59
2023-02-12T23:49:56.055Z,100708.94
2023-02-12T23:52:23.161Z,100706.25
2023-02-12T23:54:52.314Z,100707.22
2023-02-12T23:57:19.460Z,100708.47
2023-02-12T23:59:47.623Z,100697.06
